Terminal Aerodrome Forecast
Issued by NWS Sioux Falls, SD

Home | Current Version | Previous Version | Text Only | Print | Product List | Glossary On
Versions: 1 2 3 4 5 6 7 8 9 10 11 12 13
607
FTUS43 KFSD 291500 AAA
TAFFSD
TAF AMD
KFSD 291500Z 2915/3012 32015G23KT P6SM SCT022
     FM291600 32017G25KT P6SM BKN025
     FM291700 32018G26KT P6SM BKN040
     FM300100 30012KT P6SM SCT100
     FM300300 29007KT P6SM SCT150=

USA.gov is the U.S. government's official web portal to all federal, state and local government web resources and services.